KDDC/DDC METAR and TAF weather

Enter ICAO airport designator
Station Type Date Time Source
KDDC METAR 2022/10/01 07:52 UTC NOAA

KDDC 010752Z AUTO 16008KT 9SM CLR 16/08 A3003 RMK AO2 SLP140 T01560078


Station Type Date Time Source
KDDC Decoded METAR 2022/10/01 07:52 UTC NOAA

DODGE CITY REGIONAL AIRPORT, KS, United States (KDDC) 37-46N 99-58W 789M
Oct 01, 2022 - 03:52 AM EDT / 2022.10.01 0752 UTC
Wind: from the SSE (160 degrees) at 9 MPH (8 KT):0
Visibility: 9 mile(s):0
Sky conditions: clear
Temperature: 60.1 F (15.6 C)
Dew Point: 46.0 F (7.8 C)
Relative Humidity: 59%
Pressure (altimeter): 30.03 in. Hg (1016 hPa)
ob: KDDC 010752Z AUTO 16008KT 9SM CLR 16/08 A3003 RMK AO2 SLP140 T01560078
cycle: 8

Station Type Date Time Source
KDDC TAF 2022/10/01 06:22 UTC NOAA

TAF KDDC 010520Z 0106/0206 17012KT P6SM SCT240
FM012300 14016KT P6SM FEW250

Example: see airport list